Time;durP1;ratioP1;P1;durP2;ratioP2;P2;SDS_P1;SDS_P2;PMS_P1;PMS_P2;Temp;Humidity;BMP_temperature;BMP_pressure;BME280_temperature;BME280_humidity;BME280_pressure;Samples;Min_cycle;Max_cycle;Signal;HPM_P1;HPM_P2
2021/12/12 00:01:01;;;;;;;3.92;2.78;;;25.10;32.20;;;;;;5073731;28;20388;-69
2021/12/12 00:03:40;;;;;;;3.22;2.60;;;25.10;32.30;;;;;;5073792;28;20423;-70
2021/12/12 00:06:18;;;;;;;2.95;2.40;;;25.00;32.20;;;;;;5055651;28;20423;-70
2021/12/12 00:08:47;;;;;;;3.15;2.50;;;25.00;32.30;;;;;;5055397;28;20384;-70
2021/12/12 00:11:17;;;;;;;3.80;2.60;;;25.00;32.30;;;;;;5055405;28;20403;-69
2021/12/12 00:14:04;;;;;;;3.53;2.37;;;25.00;32.40;;;;;;5073387;28;20405;-69
2021/12/12 00:16:30;;;;;;;2.78;2.15;;;25.00;32.30;;;;;;5072717;28;20384;-70
2021/12/12 00:18:57;;;;;;;3.40;2.38;;;24.90;32.30;;;;;;5054819;28;20380;-70
2021/12/12 00:21:25;;;;;;;2.72;2.20;;;24.90;32.30;;;;;;5073484;28;20384;-70
2021/12/12 00:23:51;;;;;;;2.63;2.10;;;24.90;32.30;;;;;;5055620;28;20391;-69
2021/12/12 00:26:17;;;;;;;3.53;2.10;;;24.80;32.30;;;;;;5073241;28;20499;-69
2021/12/12 00:28:43;;;;;;;2.97;2.30;;;24.80;32.30;;;;;;5055165;28;20943;-70
2021/12/12 00:31:14;;;;;;;3.72;2.20;;;24.80;32.40;;;;;;5073082;28;20875;-69
2021/12/12 00:33:42;;;;;;;3.50;2.25;;;24.80;32.40;;;;;;5073240;28;20796;-69
2021/12/12 00:36:11;;;;;;;3.17;2.13;;;24.70;32.40;;;;;;5073178;28;20771;-70
2021/12/12 00:38:38;;;;;;;2.75;2.10;;;24.70;32.40;;;;;;5055115;28;20402;-70
2021/12/12 00:41:08;;;;;;;2.65;1.98;;;24.70;32.40;;;;;;5072449;28;20445;-69
2021/12/12 00:43:39;;;;;;;2.85;2.30;;;24.70;32.40;;;;;;5073030;28;20441;-69
2021/12/12 00:46:07;;;;;;;2.97;1.90;;;24.60;32.40;;;;;;5072919;28;20418;-70
2021/12/12 00:48:34;;;;;;;2.30;1.90;;;24.60;32.40;;;;;;5072811;28;20487;-70
2021/12/12 00:51:03;;;;;;;2.42;1.90;;;24.60;32.50;;;;;;5072457;28;20392;-70
2021/12/12 00:53:31;;;;;;;2.97;2.08;;;24.60;32.50;;;;;;5072825;28;20388;-70
2021/12/12 00:55:57;;;;;;;2.50;1.80;;;24.50;32.50;;;;;;5072710;28;20418;-70
2021/12/12 00:58:23;;;;;;;2.67;1.87;;;24.50;32.50;;;;;;5072661;28;20390;-70
2021/12/12 01:01:33;;;;;;;2.60;2.00;;;24.50;32.60;;;;;;5072405;28;20410;-70
2021/12/12 01:04:07;;;;;;;2.35;1.75;;;24.50;32.50;;;;;;5028449;28;20797;-69
2021/12/12 01:06:33;;;;;;;2.30;1.80;;;24.40;32.50;;;;;;5072521;28;20872;-70
2021/12/12 01:09:03;;;;;;;2.13;1.90;;;24.40;32.50;;;;;;5071955;28;20390;-70
2021/12/12 01:11:40;;;;;;;2.45;1.75;;;24.40;32.50;;;;;;5072339;28;20472;-69
2021/12/12 01:14:09;;;;;;;2.13;1.70;;;24.40;32.50;;;;;;5054239;28;20421;-69
2021/12/12 01:16:48;;;;;;;2.15;1.60;;;24.30;32.50;;;;;;5054379;28;20514;-70
2021/12/12 01:19:21;;;;;;;1.75;1.50;;;24.30;32.50;;;;;;5072131;28;20425;-69
2021/12/12 01:21:51;;;;;;;2.30;1.90;;;24.30;32.50;;;;;;5072215;28;20384;-69
2021/12/12 01:24:39;;;;;;;2.08;1.50;;;24.30;32.60;;;;;;5072102;28;20795;-69
2021/12/12 01:27:07;;;;;;;2.40;1.73;;;24.20;32.50;;;;;;5071724;28;20396;-71
2021/12/12 01:29:33;;;;;;;2.25;1.67;;;24.20;32.60;;;;;;5071704;28;20478;-69
2021/12/12 01:32:01;;;;;;;2.17;1.58;;;24.20;32.50;;;;;;5072112;28;20485;-70
2021/12/12 01:34:29;;;;;;;2.30;1.60;;;24.20;32.60;;;;;;5071904;28;20977;-69
2021/12/12 01:39:51;;;;;;;2.17;1.80;;;24.10;32.60;;;;;;5071919;28;20436;-70
2021/12/12 01:42:23;;;;;;;2.10;1.65;;;24.10;32.60;;;;;;5054628;28;20975;-70
2021/12/12 01:45:01;;;;;;;1.73;1.48;;;24.00;32.60;;;;;;5053652;28;20564;-70
2021/12/12 01:47:39;;;;;;;1.93;1.50;;;24.00;32.60;;;;;;5053841;28;20383;-69
2021/12/12 01:50:13;;;;;;;2.00;1.50;;;24.00;32.60;;;;;;5070534;28;20391;-70
2021/12/12 01:52:41;;;;;;;2.20;1.70;;;24.00;32.60;;;;;;5065631;28;20436;-70
2021/12/12 01:55:24;;;;;;;2.22;1.60;;;23.90;33.20;;;;;;5071361;28;20400;-70
2021/12/12 01:57:52;;;;;;;1.67;1.40;;;23.90;32.60;;;;;;5071615;28;20433;-69
2021/12/12 02:00:29;;;;;;;1.67;1.30;;;23.90;32.60;;;;;;5071666;28;20748;-70
2021/12/12 02:02:56;;;;;;;2.38;1.42;;;23.90;32.60;;;;;;5071472;28;20440;-69
2021/12/12 02:05:27;;;;;;;2.15;1.58;;;23.80;32.70;;;;;;5053432;28;20490;-69
2021/12/12 02:07:57;;;;;;;1.77;1.42;;;23.80;32.60;;;;;;5071563;28;20380;-69
2021/12/12 02:10:27;;;;;;;1.77;1.45;;;23.80;32.60;;;;;;5071590;28;20847;-70
2021/12/12 02:12:56;;;;;;;1.90;1.40;;;23.80;32.70;;;;;;5071255;28;20513;-69
2021/12/12 02:15:23;;;;;;;1.80;1.40;;;23.80;32.70;;;;;;5071266;28;20399;-69
2021/12/12 02:17:50;;;;;;;1.65;1.33;;;23.70;32.60;;;;;;5071632;28;20877;-69
2021/12/12 02:36:53;;;;;;;1.67;1.40;;;23.60;32.70;;;;;;5071390;28;20399;-68
2021/12/12 02:39:19;;;;;;;2.33;1.10;;;23.50;32.70;;;;;;5070997;28;20971;-67
2021/12/12 02:42:00;;;;;;;2.30;1.40;;;23.50;32.70;;;;;;5074523;28;20489;-67
2021/12/12 02:44:30;;;;;;;1.65;1.23;;;23.50;32.70;;;;;;5075138;28;20406;-68
2021/12/12 02:46:59;;;;;;;1.95;1.20;;;23.50;32.70;;;;;;5075020;28;20423;-68
2021/12/12 02:49:53;;;;;;;1.95;1.27;;;23.40;32.60;;;;;;5075201;28;20380;-67
2021/12/12 02:52:28;;;;;;;1.70;1.25;;;23.40;32.70;;;;;;5075130;28;20411;-68
2021/12/12 02:54:57;;;;;;;1.65;1.17;;;23.40;32.70;;;;;;5056877;28;20403;-68
2021/12/12 02:57:24;;;;;;;1.85;1.20;;;23.40;32.70;;;;;;5074501;28;20388;-67
2021/12/12 02:59:50;;;;;;;1.58;1.20;;;23.40;32.70;;;;;;5056997;28;20392;-68
2021/12/12 03:02:27;;;;;;;1.58;1.10;;;23.30;32.70;;;;;;5075095;28;20411;-67
2021/12/12 03:04:56;;;;;;;1.60;1.20;;;23.30;32.70;;;;;;5074577;28;20455;-68
2021/12/12 03:07:22;;;;;;;1.80;1.20;;;23.30;32.70;;;;;;5074258;28;20895;-69
2021/12/12 03:09:52;;;;;;;1.50;1.10;;;23.30;32.80;;;;;;5074757;28;20386;-69
2021/12/12 03:12:22;;;;;;;1.75;1.25;;;23.30;32.80;;;;;;5074753;28;20387;-69
2021/12/12 03:14:49;;;;;;;1.48;1.10;;;23.20;32.70;;;;;;5074635;28;20456;-69
2021/12/12 03:17:20;;;;;;;2.47;1.13;;;23.20;32.80;;;;;;5074136;28;20391;-69
2021/12/12 03:19:56;;;;;;;1.80;1.33;;;23.20;32.80;;;;;;5074587;28;20419;-69
2021/12/12 03:22:24;;;;;;;1.60;1.20;;;23.20;32.80;;;;;;5074580;28;20796;-69
2021/12/12 03:24:50;;;;;;;1.40;1.10;;;23.20;32.80;;;;;;5056453;28;20448;-69
2021/12/12 03:27:16;;;;;;;1.55;1.15;;;23.10;32.70;;;;;;5055738;28;20487;-69
2021/12/12 03:29:44;;;;;;;1.40;1.02;;;23.10;32.70;;;;;;5074337;28;20391;-69
2021/12/12 03:32:14;;;;;;;1.65;1.20;;;23.10;32.80;;;;;;5074141;28;20427;-69
2021/12/12 03:34:48;;;;;;;1.67;1.27;;;23.10;32.70;;;;;;5074209;28;20386;-69
2021/12/12 03:37:16;;;;;;;1.65;1.10;;;23.10;32.70;;;;;;5073880;28;20392;-69
2021/12/12 03:39:45;;;;;;;1.27;1.00;;;23.00;32.80;;;;;;5074230;28;20407;-69
2021/12/12 03:42:15;;;;;;;1.60;1.00;;;23.00;32.80;;;;;;5056146;28;20791;-69
2021/12/12 03:44:42;;;;;;;1.73;1.05;;;23.00;32.80;;;;;;5073944;28;20415;-69
2021/12/12 03:47:22;;;;;;;1.60;1.05;;;23.00;32.80;;;;;;5073632;28;20866;-69
2021/12/12 03:49:48;;;;;;;1.60;1.15;;;23.00;32.80;;;;;;5055915;28;20395;-69
2021/12/12 03:52:17;;;;;;;1.48;1.05;;;22.90;32.70;;;;;;5073853;28;20384;-70
2021/12/12 03:54:44;;;;;;;1.92;1.20;;;22.90;32.80;;;;;;5073884;28;20875;-69
2021/12/12 03:57:11;;;;;;;1.50;1.20;;;22.90;32.80;;;;;;5055397;28;20406;-69
2021/12/12 03:59:37;;;;;;;1.50;1.10;;;22.90;32.80;;;;;;5055906;28;20384;-69
2021/12/12 04:02:05;;;;;;;1.40;0.98;;;22.90;32.90;;;;;;5073876;28;20752;-69
2021/12/12 04:04:34;;;;;;;1.80;1.10;;;22.90;32.80;;;;;;5073651;28;20522;-69
2021/12/12 04:07:03;;;;;;;2.05;1.20;;;22.80;32.80;;;;;;5055581;28;20404;-70
2021/12/12 04:09:29;;;;;;;1.52;1.00;;;22.80;32.80;;;;;;5073698;28;20387;-69
2021/12/12 04:12:02;;;;;;;1.40;1.02;;;22.80;32.90;;;;;;5055662;28;20710;-69
2021/12/12 04:14:28;;;;;;;1.75;1.00;;;22.70;32.80;;;;;;5073522;28;20776;-70
2021/12/12 04:16:57;;;;;;;1.40;0.95;;;22.80;32.90;;;;;;5073359;28;20434;-70
2021/12/12 04:19:24;;;;;;;1.60;1.10;;;22.70;32.90;;;;;;5073133;28;20391;-69
2021/12/12 04:21:50;;;;;;;2.00;1.20;;;22.70;32.90;;;;;;5073485;28;20384;-69
2021/12/12 04:24:23;;;;;;;1.48;1.13;;;22.70;32.80;;;;;;5073353;28;20399;-69
2021/12/12 04:26:50;;;;;;;1.48;1.00;;;22.70;32.90;;;;;;5073378;28;20487;-69
2021/12/12 04:29:25;;;;;;;1.38;1.00;;;22.70;32.80;;;;;;5072900;28;20411;-69
2021/12/12 04:31:58;;;;;;;1.40;1.10;;;22.70;32.90;;;;;;5073320;28;20392;-69
2021/12/12 04:34:27;;;;;;;1.52;1.30;;;22.60;32.80;;;;;;5073221;28;20384;-69
2021/12/12 04:36:55;;;;;;;1.70;1.15;;;22.60;32.90;;;;;;5073089;28;20375;-70
2021/12/12 04:39:30;;;;;;;1.60;1.30;;;22.60;32.90;;;;;;5072935;28;20387;-69
2021/12/12 04:42:00;;;;;;;1.83;1.00;;;22.60;32.90;;;;;;5072993;28;20407;-69
2021/12/12 04:44:30;;;;;;;1.45;1.10;;;22.50;32.80;;;;;;5072938;28;20906;-69
2021/12/12 04:50:36;;;;;;;1.30;0.90;;;22.50;32.90;;;;;;5072904;28;20402;-69
2021/12/12 04:53:23;;;;;;;1.83;1.35;;;22.50;32.90;;;;;;5068652;28;20410;-70
2021/12/12 04:55:55;;;;;;;2.10;1.20;;;22.50;33.00;;;;;;5072747;28;20432;-69
2021/12/12 04:58:29;;;;;;;1.55;1.00;;;22.50;33.00;;;;;;5072807;28;20387;-69
2021/12/12 05:01:14;;;;;;;1.60;1.20;;;22.50;33.00;;;;;;5072823;28;20844;-69
2021/12/12 05:03:56;;;;;;;1.33;1.08;;;22.40;32.90;;;;;;5071994;28;20384;-69
2021/12/12 05:06:27;;;;;;;2.30;1.10;;;22.40;32.90;;;;;;5072446;28;20423;-69
2021/12/12 05:09:03;;;;;;;1.48;1.08;;;22.40;32.90;;;;;;5072573;28;20384;-69
2021/12/12 05:11:42;;;;;;;1.20;1.00;;;22.40;33.00;;;;;;5072247;28;20457;-69
2021/12/12 05:14:21;;;;;;;1.35;1.10;;;22.40;33.00;;;;;;5072537;28;20856;-68
2021/12/12 05:17:02;;;;;;;1.88;1.13;;;22.30;33.00;;;;;;5072379;28;20763;-69
2021/12/12 05:19:30;;;;;;;1.63;1.10;;;22.30;33.00;;;;;;5072093;28;20388;-69
2021/12/12 05:22:01;;;;;;;1.40;1.00;;;22.30;33.00;;;;;;5054386;28;20403;-69
2021/12/12 05:24:29;;;;;;;1.55;1.02;;;22.30;33.10;;;;;;5054170;28;20409;-69
2021/12/12 05:27:02;;;;;;;1.63;1.00;;;22.30;33.10;;;;;;5054336;28;20403;-69
2021/12/12 05:29:32;;;;;;;1.40;1.10;;;22.30;33.10;;;;;;5053998;28;20748;-69
2021/12/12 05:32:01;;;;;;;1.38;1.15;;;22.30;33.20;;;;;;5054239;28;20391;-69
2021/12/12 05:34:30;;;;;;;1.67;1.17;;;22.20;33.00;;;;;;5071979;28;20384;-69
2021/12/12 05:36:57;;;;;;;1.45;1.10;;;22.20;33.10;;;;;;5054085;28;20388;-69
2021/12/12 05:39:24;;;;;;;1.60;1.10;;;22.20;33.00;;;;;;5053771;28;20391;-69
2021/12/12 05:41:53;;;;;;;1.60;1.08;;;22.20;33.10;;;;;;5071786;28;20460;-69
2021/12/12 05:44:19;;;;;;;1.30;1.10;;;22.20;33.00;;;;;;5053870;28;20388;-69
2021/12/12 05:46:45;;;;;;;1.33;0.98;;;22.20;33.10;;;;;;5053904;28;20615;-69
2021/12/12 05:49:12;;;;;;;1.20;1.00;;;22.10;33.00;;;;;;5071411;28;20375;-69
2021/12/12 05:51:38;;;;;;;1.50;1.10;;;22.10;33.10;;;;;;5053765;28;20399;-69
2021/12/12 05:54:05;;;;;;;1.30;1.00;;;22.10;33.10;;;;;;5071791;28;20394;-69
2021/12/12 05:56:34;;;;;;;1.40;1.00;;;22.10;33.00;;;;;;5054083;28;20423;-69
2021/12/12 05:59:00;;;;;;;1.50;1.00;;;22.10;33.10;;;;;;5053927;28;20388;-69
2021/12/12 06:01:28;;;;;;;1.80;1.20;;;22.10;33.20;;;;;;5071541;28;20402;-69
2021/12/12 06:03:54;;;;;;;1.25;1.02;;;22.00;33.10;;;;;;5071566;28;20481;-69
2021/12/12 06:06:33;;;;;;;1.40;1.20;;;22.00;33.10;;;;;;5072501;28;20458;-69
2021/12/12 06:09:03;;;;;;;1.35;1.10;;;22.00;33.20;;;;;;5053758;28;20467;-69
2021/12/12 06:11:33;;;;;;;1.70;1.00;;;22.00;33.20;;;;;;5072730;28;20395;-69
2021/12/12 06:14:00;;;;;;;1.63;1.13;;;22.00;33.30;;;;;;5071298;28;20890;-69
2021/12/12 06:16:28;;;;;;;2.45;1.30;;;22.00;33.40;;;;;;5070465;28;20395;-69
2021/12/12 06:19:00;;;;;;;9.65;2.00;;;22.10;34.10;;;;;;5053944;28;20388;-69
2021/12/12 06:21:26;;;;;;;7.38;4.88;;;22.00;34.20;;;;;;5052984;28;20487;-69
2021/12/12 06:23:53;;;;;;;7.70;3.90;;;22.10;35.90;;;;;;5053229;28;20463;-69
2021/12/12 06:26:20;;;;;;;3.93;2.43;;;22.10;36.30;;;;;;5072701;28;20424;-69
2021/12/12 06:28:47;;;;;;;5.07;2.20;;;22.10;36.00;;;;;;5053458;28;20399;-69
2021/12/12 06:31:13;;;;;;;6.47;2.40;;;22.10;35.90;;;;;;5072520;28;20449;-69
2021/12/12 06:33:40;;;;;;;3.10;2.03;;;22.20;35.90;;;;;;5056978;28;20386;-69
2021/12/12 06:36:09;;;;;;;3.97;1.90;;;22.20;35.80;;;;;;5073493;28;20963;-69
2021/12/12 06:38:36;;;;;;;2.78;1.90;;;22.20;35.90;;;;;;5071753;28;20422;-69
2021/12/12 06:41:02;;;;;;;2.90;1.77;;;22.20;35.90;;;;;;5070242;28;20432;-69
2021/12/12 06:43:29;;;;;;;3.33;1.90;;;22.20;35.80;;;;;;5053210;28;20787;-69
2021/12/12 06:45:55;;;;;;;5.45;1.98;;;22.20;36.00;;;;;;5071646;28;20418;-69
2021/12/12 06:48:22;;;;;;;4.17;1.60;;;22.20;36.00;;;;;;5071405;28;20383;-69
2021/12/12 06:50:51;;;;;;;2.47;1.88;;;22.20;36.00;;;;;;5071786;28;20406;-69
2021/12/12 06:53:19;;;;;;;3.20;1.70;;;22.20;36.20;;;;;;5070489;28;20383;-69
2021/12/12 06:55:46;;;;;;;3.80;1.85;;;22.20;36.00;;;;;;5058709;28;20772;-69
2021/12/12 06:58:14;;;;;;;3.17;1.70;;;22.20;36.30;;;;;;5059972;28;20386;-69
2021/12/12 07:00:42;;;;;;;3.58;1.77;;;22.20;36.40;;;;;;5060308;28;21063;-69
2021/12/12 07:03:08;;;;;;;3.47;1.60;;;22.20;36.20;;;;;;5043264;28;20887;-70
2021/12/12 07:05:35;;;;;;;2.85;1.90;;;22.20;36.40;;;;;;5059643;28;20475;-69
2021/12/12 07:08:03;;;;;;;2.83;1.70;;;22.20;36.40;;;;;;5070015;28;21251;-69
2021/12/12 07:10:31;;;;;;;2.83;1.60;;;22.20;36.30;;;;;;5060991;28;20435;-69
2021/12/12 07:12:59;;;;;;;2.90;2.30;;;22.20;36.30;;;;;;5053947;28;20389;-68
2021/12/12 07:15:31;;;;;;;3.70;2.13;;;22.00;34.80;;;;;;5069493;28;20395;-69
2021/12/12 07:18:00;;;;;;;3.10;1.95;;;21.90;34.50;;;;;;5069478;28;20384;-68
2021/12/12 07:20:28;;;;;;;3.58;1.88;;;21.80;34.70;;;;;;5068091;28;20411;-68
2021/12/12 07:22:55;;;;;;;3.05;1.98;;;21.80;34.70;;;;;;5071134;28;20384;-68
2021/12/12 07:25:21;;;;;;;3.60;1.88;;;21.70;34.60;;;;;;5070148;28;20420;-69
2021/12/12 07:27:50;;;;;;;2.80;1.70;;;21.70;34.60;;;;;;5073972;28;20383;-68
2021/12/12 07:30:16;;;;;;;3.17;1.80;;;21.60;35.10;;;;;;5074354;28;20404;-68
2021/12/12 07:32:42;;;;;;;3.03;1.55;;;21.60;35.20;;;;;;5074524;28;20760;-68
2021/12/12 07:35:09;;;;;;;2.80;1.50;;;21.60;35.30;;;;;;5074263;28;20872;-68
2021/12/12 07:37:36;;;;;;;5.55;1.50;;;21.50;36.00;;;;;;5056148;28;20404;-68
2021/12/12 07:40:04;;;;;;;2.47;1.50;;;21.50;35.70;;;;;;5074366;28;20410;-68
2021/12/12 07:42:30;;;;;;;3.50;1.35;;;21.60;35.50;;;;;;5074002;28;20400;-68
2021/12/12 07:44:56;;;;;;;3.30;1.35;;;21.50;35.50;;;;;;5075046;28;20915;-68
2021/12/12 07:47:23;;;;;;;2.63;1.50;;;21.50;35.40;;;;;;5073986;28;20384;-68
2021/12/12 07:49:50;;;;;;;2.03;1.40;;;21.50;35.60;;;;;;5074035;28;20395;-68
2021/12/12 07:52:20;;;;;;;2.22;1.38;;;21.50;35.70;;;;;;5057136;28;20396;-68
2021/12/12 07:54:49;;;;;;;2.20;1.50;;;21.50;35.50;;;;;;5056910;28;20391;-69
2021/12/12 07:57:17;;;;;;;3.97;1.50;;;21.40;36.30;;;;;;5074089;28;20383;-68
2021/12/12 07:59:44;;;;;;;3.70;1.30;;;21.40;35.50;;;;;;5074255;28;20938;-68
2021/12/12 08:02:12;;;;;;;2.30;1.20;;;21.40;35.60;;;;;;5073925;28;20392;-68
2021/12/12 08:04:40;;;;;;;2.42;1.30;;;21.40;35.60;;;;;;5074339;28;20425;-68
2021/12/12 08:07:14;;;;;;;3.90;1.30;;;21.30;35.30;;;;;;5073733;28;20396;-68
2021/12/12 08:09:43;;;;;;;4.37;1.70;;;21.30;35.60;;;;;;5073578;28;20429;-68
2021/12/12 08:12:16;;;;;;;4.65;1.30;;;21.30;36.80;;;;;;5073637;28;20392;-67
2021/12/12 08:14:42;;;;;;;2.80;1.30;;;21.30;36.60;;;;;;5074274;28;20376;-68
2021/12/12 08:17:10;;;;;;;3.45;1.65;;;21.30;36.50;;;;;;5073292;28;20887;-68
2021/12/12 08:19:36;;;;;;;3.75;1.50;;;21.30;35.90;;;;;;5073266;28;20415;-70
2021/12/12 08:22:08;;;;;;;3.55;1.50;;;21.30;36.10;;;;;;5073932;28;20383;-70
2021/12/12 08:24:37;;;;;;;7.32;4.50;;;21.20;36.70;;;;;;5073407;28;20415;-70
2021/12/12 08:27:04;;;;;;;5.40;3.95;;;21.30;38.50;;;;;;5055445;28;20495;-69
2021/12/12 08:29:32;;;;;;;5.72;4.00;;;21.30;38.70;;;;;;5073245;28;20409;-69
2021/12/12 08:31:58;;;;;;;5.28;2.72;;;21.30;39.00;;;;;;5073513;28;20391;-70
2021/12/12 08:34:26;;;;;;;5.38;2.50;;;21.30;39.60;;;;;;5056166;28;20387;-70
2021/12/12 08:36:54;;;;;;;4.13;2.17;;;21.30;38.70;;;;;;5073495;28;20380;-70
2021/12/12 08:39:21;;;;;;;4.20;2.33;;;21.30;38.60;;;;;;5071711;28;20506;-70
2021/12/12 08:41:50;;;;;;;8.55;2.33;;;21.30;38.30;;;;;;5073388;28;20416;-70
2021/12/12 08:44:17;;;;;;;5.35;2.60;;;21.30;38.30;;;;;;5072995;28;20437;-69
2021/12/12 08:46:48;;;;;;;6.20;2.35;;;21.30;38.20;;;;;;5073015;28;20883;-68
2021/12/12 08:49:18;;;;;;;6.18;2.35;;;21.20;37.70;;;;;;5072556;28;20410;-69
2021/12/12 08:51:49;;;;;;;5.80;2.40;;;21.20;38.50;;;;;;5073730;28;20376;-68
2021/12/12 08:54:24;;;;;;;6.05;2.42;;;21.20;38.10;;;;;;5073119;28;20427;-70
2021/12/12 08:56:55;;;;;;;9.80;2.70;;;21.20;38.40;;;;;;5056517;28;20384;-70
2021/12/12 08:59:25;;;;;;;6.22;2.30;;;21.30;38.50;;;;;;5072919;28;20386;-70
2021/12/12 09:01:54;;;;;;;7.00;2.25;;;21.40;38.30;;;;;;5072757;28;20376;-70
2021/12/12 09:04:20;;;;;;;5.03;2.17;;;21.50;38.50;;;;;;5055338;28;20396;-70
2021/12/12 09:07:21;;;;;;;6.40;4.40;;;21.60;38.30;;;;;;5072661;28;20399;-71
2021/12/12 09:10:12;;;;;;;4.60;2.75;;;21.70;38.80;;;;;;5072553;28;20376;-71
2021/12/12 09:12:41;;;;;;;5.68;2.65;;;21.80;37.80;;;;;;5072897;28;20427;-70
2021/12/12 09:15:26;;;;;;;4.88;2.80;;;21.80;37.00;;;;;;5069877;28;20415;-70
2021/12/12 09:17:59;;;;;;;4.35;2.55;;;21.90;36.90;;;;;;5049240;28;20400;-71
2021/12/12 09:20:35;;;;;;;4.35;2.50;;;21.90;36.50;;;;;;5070691;28;20416;-70
2021/12/12 09:23:20;;;;;;;4.38;2.58;;;21.90;36.40;;;;;;5066287;28;20419;-70
2021/12/12 09:25:52;;;;;;;3.50;2.20;;;22.00;36.20;;;;;;5061228;28;20431;-70
2021/12/12 09:28:49;;;;;;;4.03;2.47;;;22.00;36.10;;;;;;5068001;28;20852;-70
2021/12/12 09:31:24;;;;;;;4.03;2.33;;;22.00;35.80;;;;;;5052235;28;20403;-70
2021/12/12 09:33:58;;;;;;;3.35;2.25;;;22.00;35.60;;;;;;5069604;28;20384;-71
2021/12/12 09:36:36;;;;;;;3.88;2.22;;;22.10;35.60;;;;;;5068620;28;21002;-70
2021/12/12 09:39:14;;;;;;;3.25;2.40;;;22.10;36.00;;;;;;5051768;28;20448;-70
2021/12/12 09:41:51;;;;;;;3.20;2.08;;;22.10;35.20;;;;;;5039987;28;20411;-71
2021/12/12 09:44:20;;;;;;;2.38;1.80;;;22.10;35.10;;;;;;5031932;28;20422;-71
2021/12/12 09:47:59;;;;;;;2.85;1.90;;;22.10;34.90;;;;;;5031749;28;20411;-70
2021/12/12 09:53:46;;;;;;;3.13;1.80;;;22.10;34.60;;;;;;5032681;28;20488;-71
2021/12/12 09:56:25;;;;;;;3.05;1.90;;;22.10;34.50;;;;;;5013834;28;20391;-71
2021/12/12 09:59:28;;;;;;;3.33;1.70;;;22.20;34.50;;;;;;5031576;28;20392;-71
2021/12/12 10:02:21;;;;;;;2.50;1.70;;;22.10;34.40;;;;;;5031272;28;20395;-71
2021/12/12 10:05:01;;;;;;;2.50;1.70;;;22.20;34.40;;;;;;5046430;28;20441;-71
2021/12/12 10:08:02;;;;;;;3.25;1.83;;;22.20;34.30;;;;;;5051016;28;20912;-71
2021/12/12 10:10:56;;;;;;;2.60;1.73;;;22.20;34.10;;;;;;5020611;28;20917;-71
2021/12/12 10:13:40;;;;;;;2.50;1.63;;;22.20;34.10;;;;;;5049086;28;20386;-71
2021/12/12 10:16:28;;;;;;;2.22;1.60;;;22.20;34.10;;;;;;5038402;28;20892;-71
2021/12/12 10:19:01;;;;;;;3.75;1.67;;;22.20;33.90;;;;;;5041644;28;20424;-70
2021/12/12 10:21:52;;;;;;;2.10;1.50;;;22.20;33.80;;;;;;5048504;28;20393;-72
2021/12/12 10:24:26;;;;;;;2.20;1.70;;;22.20;33.90;;;;;;5049954;28;20392;-72
2021/12/12 10:27:22;;;;;;;1.83;1.30;;;22.30;33.80;;;;;;5032697;28;20410;-71
2021/12/12 10:30:14;;;;;;;2.10;1.50;;;22.30;33.80;;;;;;5037449;28;20952;-71
2021/12/12 10:33:12;;;;;;;2.53;1.60;;;22.40;33.80;;;;;;5039425;28;20414;-71
2021/12/12 10:35:53;;;;;;;2.13;1.60;;;22.40;33.70;;;;;;5043517;28;20397;-71
2021/12/12 10:38:27;;;;;;;2.10;1.50;;;22.40;33.60;;;;;;5050069;28;20386;-71
2021/12/12 10:41:03;;;;;;;2.03;1.60;;;22.50;33.50;;;;;;5054083;28;20414;-71
2021/12/12 10:43:52;;;;;;;2.70;1.40;;;22.50;33.40;;;;;;5068005;28;20406;-71
2021/12/12 10:47:01;;;;;;;2.40;1.50;;;22.60;33.40;;;;;;5046396;28;20423;-70
2021/12/12 10:50:16;;;;;;;2.15;1.52;;;22.60;33.40;;;;;;5066154;28;20388;-71
2021/12/12 10:53:03;;;;;;;1.90;1.50;;;22.60;33.30;;;;;;4988773;28;20867;-71
2021/12/12 10:55:41;;;;;;;2.20;1.50;;;22.60;33.30;;;;;;4985052;28;20512;-71
2021/12/12 10:58:18;;;;;;;2.17;1.60;;;22.60;33.10;;;;;;5040437;28;20791;-72
2021/12/12 11:00:50;;;;;;;2.63;1.50;;;22.50;33.00;;;;;;5068203;28;20478;-71
2021/12/12 11:03:23;;;;;;;1.77;1.40;;;22.50;33.10;;;;;;5055228;28;20396;-71
2021/12/12 11:06:11;;;;;;;2.00;1.55;;;22.60;33.10;;;;;;5072516;28;20426;-71
2021/12/12 11:09:07;;;;;;;2.40;1.48;;;22.60;33.10;;;;;;5073765;28;20899;-71
2021/12/12 11:12:02;;;;;;;2.13;1.50;;;22.60;33.10;;;;;;5072153;28;20435;-71
2021/12/12 11:14:35;;;;;;;1.90;1.50;;;22.60;33.10;;;;;;5052180;28;20757;-71
2021/12/12 11:17:10;;;;;;;2.28;1.50;;;22.70;33.00;;;;;;5073647;28;20394;-71
2021/12/12 11:19:42;;;;;;;2.10;1.55;;;22.70;32.90;;;;;;5072951;28;20415;-70
2021/12/12 11:22:21;;;;;;;2.28;1.25;;;22.70;32.80;;;;;;5056275;28;20395;-70
2021/12/12 11:24:56;;;;;;;2.10;1.50;;;22.70;32.80;;;;;;5074198;28;20403;-71
2021/12/12 11:27:39;;;;;;;2.10;1.50;;;22.70;32.90;;;;;;5056094;28;20397;-70
2021/12/12 11:30:23;;;;;;;2.00;1.30;;;22.70;32.80;;;;;;5073143;28;20382;-70
2021/12/12 11:32:51;;;;;;;1.70;1.40;;;22.70;32.80;;;;;;5056318;28;20737;-71
2021/12/12 11:35:20;;;;;;;1.70;1.30;;;22.70;32.80;;;;;;5056173;28;20384;-71
2021/12/12 11:37:56;;;;;;;1.63;1.33;;;22.70;32.80;;;;;;5073504;28;20709;-71
2021/12/12 11:40:30;;;;;;;2.55;1.40;;;22.70;32.70;;;;;;5055724;28;20396;-70
2021/12/12 11:43:13;;;;;;;1.85;1.33;;;22.80;32.70;;;;;;5073886;28;20414;-71
2021/12/12 11:45:41;;;;;;;1.83;1.42;;;22.80;32.80;;;;;;5055905;28;20477;-71
2021/12/12 11:48:18;;;;;;;1.98;1.30;;;22.80;33.00;;;;;;5074103;28;20466;-71
2021/12/12 11:51:02;;;;;;;5.68;1.50;;;22.80;32.90;;;;;;5055873;28;20783;-70
2021/12/12 11:53:37;;;;;;;6.60;1.20;;;22.90;33.20;;;;;;5055432;28;20380;-70
2021/12/12 11:56:14;;;;;;;4.10;1.40;;;22.80;33.10;;;;;;5073824;28;20392;-71
2021/12/12 11:58:56;;;;;;;2.53;1.38;;;22.80;33.00;;;;;;5073504;28;20760;-71
2021/12/12 12:01:30;;;;;;;3.15;1.30;;;22.80;33.00;;;;;;5073595;28;20410;-71
2021/12/12 12:04:11;;;;;;;1.97;1.40;;;22.90;33.00;;;;;;5055909;28;20396;-71
2021/12/12 12:07:04;;;;;;;3.17;1.25;;;22.90;32.90;;;;;;5073224;28;20416;-71
2021/12/12 12:10:04;;;;;;;2.75;1.20;;;22.90;32.80;;;;;;5073174;28;20382;-70
2021/12/12 12:12:57;;;;;;;2.65;1.48;;;22.90;32.80;;;;;;5055087;28;20804;-71
2021/12/12 12:15:52;;;;;;;2.13;1.60;;;23.00;32.70;;;;;;5073449;28;20484;-71
2021/12/12 12:18:41;;;;;;;2.55;1.38;;;23.00;32.60;;;;;;5073588;28;20392;-71
2021/12/12 12:21:21;;;;;;;3.17;1.20;;;23.00;32.70;;;;;;5073359;28;20390;-70
2021/12/12 12:24:15;;;;;;;1.83;1.25;;;23.00;32.60;;;;;;5055175;28;20449;-71
2021/12/12 12:26:51;;;;;;;2.88;1.20;;;23.10;32.60;;;;;;5055424;28;20427;-71
2021/12/12 12:29:28;;;;;;;1.88;1.10;;;23.10;32.50;;;;;;5073458;28;20886;-71
2021/12/12 12:32:29;;;;;;;2.25;1.23;;;23.10;32.50;;;;;;5054975;28;20380;-71
2021/12/12 12:35:00;;;;;;;1.70;1.35;;;23.10;32.50;;;;;;5029861;28;20395;-71
2021/12/12 12:38:07;;;;;;;2.10;1.20;;;23.10;32.50;;;;;;5054902;28;20418;-71
2021/12/12 12:41:29;;;;;;;3.25;1.20;;;23.10;32.50;;;;;;5072814;28;20867;-71
2021/12/12 12:44:29;;;;;;;4.82;1.42;;;23.50;35.30;;;;;;5054900;28;20388;-70
2021/12/12 12:47:31;;;;;;;3.70;1.33;;;23.80;33.40;;;;;;5065269;28;20411;-71
2021/12/12 12:50:25;;;;;;;2.83;1.60;;;24.00;33.00;;;;;;5071079;28;20391;-70
2021/12/12 12:53:28;;;;;;;2.85;1.52;;;24.10;33.30;;;;;;5070184;28;20713;-72
2021/12/12 12:56:09;;;;;;;3.13;1.38;;;24.20;33.00;;;;;;5052676;28;20388;-71
2021/12/12 12:58:52;;;;;;;2.55;1.30;;;24.30;32.70;;;;;;5070681;28;20384;-72
2021/12/12 13:01:41;;;;;;;2.42;1.20;;;24.40;33.00;;;;;;5053119;28;20396;-71
2021/12/12 13:04:39;;;;;;;2.10;1.10;;;24.50;32.50;;;;;;5063329;28;20375;-71
2021/12/12 13:07:14;;;;;;;1.90;1.20;;;24.60;32.40;;;;;;5053462;28;20415;-71
2021/12/12 13:09:58;;;;;;;2.33;1.20;;;24.70;32.20;;;;;;5064436;28;20472;-71
2021/12/12 13:13:14;;;;;;;2.05;1.15;;;24.70;32.40;;;;;;5054079;28;20388;-71
2021/12/12 13:15:45;;;;;;;2.00;1.40;;;24.80;32.20;;;;;;5024065;28;20399;-72
2021/12/12 13:18:29;;;;;;;2.17;1.15;;;24.80;31.70;;;;;;5052916;28;20391;-71
2021/12/12 13:21:16;;;;;;;2.10;1.10;;;24.90;32.20;;;;;;5069793;28;20396;-71
2021/12/12 13:24:11;;;;;;;3.75;1.10;;;24.90;32.00;;;;;;5069909;28;20421;-70
2021/12/12 13:27:11;;;;;;;2.22;1.00;;;25.00;32.30;;;;;;5070960;28;20442;-70
2021/12/12 13:29:55;;;;;;;2.38;1.20;;;25.00;31.80;;;;;;5070894;28;20384;-70
2021/12/12 13:32:35;;;;;;;2.88;1.10;;;25.10;32.00;;;;;;5053578;28;20446;-70
2021/12/12 13:35:07;;;;;;;2.65;1.00;;;25.20;31.80;;;;;;5072195;28;20872;-71
2021/12/12 13:37:38;;;;;;;1.77;0.90;;;25.10;31.50;;;;;;5053676;28;20392;-70
2021/12/12 13:40:25;;;;;;;1.80;0.82;;;25.10;32.20;;;;;;5071801;28;20402;-71
2021/12/12 13:43:21;;;;;;;1.60;0.90;;;25.00;32.30;;;;;;5071960;28;20400;-71
2021/12/12 13:46:14;;;;;;;1.93;1.10;;;25.00;32.30;;;;;;5071533;28;20411;-70
2021/12/12 13:48:58;;;;;;;1.45;0.88;;;24.90;32.20;;;;;;5071683;28;20380;-70
2021/12/12 13:52:00;;;;;;;1.33;0.90;;;24.80;32.30;;;;;;5071501;28;20390;-70
2021/12/12 13:54:54;;;;;;;1.52;1.00;;;24.80;32.20;;;;;;5071740;28;20395;-70